createdAt,value
2019-01-16T00:02:50.297Z,31.14
2019-01-16T00:05:53.818Z,31.09
2019-01-16T00:08:45.052Z,31.29
2019-01-16T00:11:54.108Z,31.22
2019-01-16T00:14:39.754Z,31.32
2019-01-16T00:17:27.104Z,31.20
2019-01-16T00:20:07.560Z,31.21
2019-01-16T00:22:56.000Z,31.20
2019-01-16T00:25:56.379Z,31.20
2019-01-16T00:28:39.470Z,31.25
2019-01-16T00:31:27.915Z,31.40
2019-01-16T00:34:07.053Z,31.24
2019-01-16T00:37:04.616Z,31.21
2019-01-16T00:39:56.115Z,31.32
2019-01-16T00:42:50.487Z,31.30
2019-01-16T00:45:44.741Z,31.35
2019-01-16T00:48:27.197Z,31.48
2019-01-16T00:51:31.022Z,31.43
2019-01-16T00:54:21.972Z,31.31
2019-01-16T00:57:10.387Z,31.19
2019-01-16T00:59:49.730Z,31.15
2019-01-16T01:02:37.049Z,31.34
2019-01-16T01:05:43.991Z,31.21
2019-01-16T01:08:32.426Z,31.23
2019-01-16T01:11:26.593Z,31.37
2019-01-16T01:14:17.882Z,31.58
2019-01-16T01:16:57.292Z,31.65
2019-01-16T01:19:44.506Z,31.43
2019-01-16T01:22:35.894Z,31.59
2019-01-16T01:25:27.607Z,31.40
2019-01-16T01:28:08.251Z,31.41
2019-01-16T01:30:51.710Z,31.54
2019-01-16T01:33:46.114Z,31.50
2019-01-16T01:36:33.319Z,31.64
2019-01-16T01:39:27.992Z,31.69
2019-01-16T01:42:22.391Z,31.89
2019-01-16T01:45:13.651Z,32.02
2019-01-16T01:47:59.520Z,32.05
2019-01-16T01:51:03.123Z,32.23
2019-01-16T01:53:50.427Z,31.96
2019-01-16T01:56:57.149Z,32.14
2019-01-16T01:59:42.710Z,32.29
2019-01-16T02:02:19.544Z,32.14
2019-01-16T02:05:14.145Z,32.18
2019-01-16T02:08:04.881Z,32.01
2019-01-16T02:10:59.570Z,31.95
2019-01-16T02:14:00.349Z,31.90
2019-01-16T02:17:00.992Z,31.89
2019-01-16T02:19:48.316Z,31.89
2019-01-16T02:22:19.726Z,31.81
2019-01-16T02:25:06.631Z,31.95
2019-01-16T02:27:58.100Z,32.07
2019-01-16T02:30:53.872Z,31.96
2019-01-16T02:33:45.318Z,31.90
2019-01-16T02:36:24.915Z,31.83
2019-01-16T02:39:13.987Z,31.78
2019-01-16T02:42:01.249Z,31.61
2019-01-16T02:44:55.062Z,31.54
2019-01-16T02:47:51.617Z,31.47
2019-01-16T02:50:49.030Z,31.54
2019-01-16T02:53:40.418Z,31.55
2019-01-16T02:56:32.026Z,31.49
2019-01-16T02:59:38.882Z,31.54
2019-01-16T03:02:33.240Z,31.37
2019-01-16T03:05:21.672Z,31.30
2019-01-16T03:07:57.619Z,31.37
2019-01-16T03:10:38.706Z,31.25
2019-01-16T03:13:45.249Z,31.32
2019-01-16T03:16:47.241Z,31.22
2019-01-16T03:19:41.948Z,31.15
2019-01-16T03:22:36.604Z,31.21
2019-01-16T03:25:37.492Z,31.23
2019-01-16T03:28:28.693Z,31.18
2019-01-16T03:31:13.065Z,31.31
2019-01-16T03:33:57.070Z,31.25
2019-01-16T03:36:44.123Z,31.27
2019-01-16T03:39:32.277Z,31.31
2019-01-16T03:42:36.038Z,31.29
2019-01-16T03:45:25.231Z,31.30
2019-01-16T03:48:21.665Z,31.22
2019-01-16T03:51:12.996Z,31.23
2019-01-16T03:54:10.547Z,31.21
2019-01-16T03:56:54.510Z,31.16
2019-01-16T03:59:32.114Z,31.16
2019-01-16T04:02:23.690Z,31.17
2019-01-16T04:05:12.200Z,31.26
2019-01-16T04:07:54.462Z,31.30
2019-01-16T04:11:01.247Z,31.30
2019-01-16T04:13:53.798Z,31.53
2019-01-16T04:16:57.265Z,31.56
2019-01-16T04:20:04.081Z,31.49
2019-01-16T04:22:52.465Z,31.53
2019-01-16T04:25:56.242Z,31.48
2019-01-16T04:28:42.319Z,31.34
2019-01-16T04:31:29.235Z,31.45
2019-01-16T04:34:23.493Z,31.43
2019-01-16T04:37:10.725Z,31.37
2019-01-16T04:40:05.075Z,31.42
2019-01-16T04:42:52.408Z,31.43
2019-01-16T04:45:49.972Z,31.23
2019-01-16T04:48:32.845Z,31.35
2019-01-16T04:51:30.270Z,31.42
2019-01-16T04:54:17.649Z,31.41
2019-01-16T04:57:06.303Z,31.35
2019-01-16T05:00:09.793Z,31.22
2019-01-16T05:02:58.248Z,31.17
2019-01-16T05:05:52.444Z,31.28
2019-01-16T05:08:40.882Z,31.18
2019-01-16T05:11:27.974Z,31.14
2019-01-16T05:14:17.864Z,31.37
2019-01-16T05:17:06.332Z,31.11
2019-01-16T05:19:54.818Z,31.03
2019-01-16T05:22:55.418Z,31.24
2019-01-16T05:25:52.877Z,31.06
2019-01-16T05:28:39.870Z,30.80
2019-01-16T05:31:31.187Z,30.53
2019-01-16T05:34:28.891Z,30.38
2019-01-16T05:37:29.450Z,30.18
2019-01-16T05:40:33.058Z,30.23
2019-01-16T05:43:18.078Z,29.41
2019-01-16T05:46:05.100Z,29.28
2019-01-16T05:48:56.744Z,29.01
2019-01-16T05:51:44.003Z,28.75
2019-01-16T05:54:31.158Z,28.38
2019-01-16T05:57:18.313Z,27.91
2019-01-16T05:59:56.110Z,27.82
2019-01-16T06:02:43.328Z,27.91
2019-01-16T06:05:21.330Z,27.93
2019-01-16T06:08:09.839Z,27.95
2019-01-16T06:10:47.585Z,27.87
2019-01-16T06:13:36.016Z,25.37
2019-01-16T06:16:42.553Z,27.40
2019-01-16T06:19:31.036Z,27.69
2019-01-16T06:22:15.452Z,28.03
2019-01-16T06:25:06.710Z,28.31
2019-01-16T06:28:04.265Z,28.59
2019-01-16T06:30:48.827Z,29.20
2019-01-16T06:33:36.812Z,28.85
2019-01-16T06:36:23.780Z,29.13
2019-01-16T06:39:21.190Z,29.62
2019-01-16T06:42:12.294Z,29.35
2019-01-16T06:45:03.742Z,29.06
2019-01-16T06:47:52.898Z,29.82
2019-01-16T06:50:37.428Z,30.33
2019-01-16T06:53:32.019Z,30.61
2019-01-16T06:56:26.512Z,31.25
2019-01-16T06:59:10.669Z,31.29
2019-01-16T07:01:59.097Z,31.66
2019-01-16T07:04:46.070Z,31.90
2019-01-16T07:07:23.322Z,31.35
2019-01-16T07:10:20.645Z,32.00
2019-01-16T07:13:11.821Z,32.37
2019-01-16T07:15:58.865Z,32.42
2019-01-16T07:19:02.458Z,33.44
2019-01-16T07:22:09.412Z,33.13
2019-01-16T07:25:01.089Z,32.80
2019-01-16T07:27:41.319Z,33.46
2019-01-16T07:30:28.180Z,33.35
2019-01-16T07:33:15.084Z,33.59
2019-01-16T07:36:02.148Z,33.76
2019-01-16T07:38:50.557Z,34.07
2019-01-16T07:41:39.012Z,33.82
2019-01-16T07:44:42.385Z,34.12
2019-01-16T07:47:20.866Z,34.27
2019-01-16T07:50:17.347Z,34.53
2019-01-16T07:53:06.879Z,34.70
2019-01-16T07:55:55.399Z,32.81
2019-01-16T07:58:38.335Z,33.52
2019-01-16T08:01:36.024Z,34.88
2019-01-16T08:04:36.819Z,34.96
2019-01-16T08:07:27.949Z,35.18
2019-01-16T08:10:14.996Z,35.46
2019-01-16T08:13:02.151Z,36.27
2019-01-16T08:15:50.627Z,34.95
2019-01-16T08:18:33.796Z,35.90
2019-01-16T08:21:19.576Z,34.43
2019-01-16T08:24:13.402Z,34.94
2019-01-16T08:27:17.135Z,36.35
2019-01-16T08:30:03.332Z,35.94
2019-01-16T08:32:54.835Z,36.44
2019-01-16T08:35:37.173Z,36.26
2019-01-16T08:38:28.871Z,36.08
2019-01-16T08:41:22.331Z,36.38
2019-01-16T08:44:18.929Z,36.38
2019-01-16T08:46:59.586Z,36.05
2019-01-16T08:49:54.079Z,37.82
2019-01-16T08:52:54.550Z,36.96
2019-01-16T08:55:42.894Z,36.15
2019-01-16T08:58:37.413Z,36.01
2019-01-16T09:01:41.156Z,35.96
2019-01-16T09:04:30.199Z,35.63
2019-01-16T09:07:18.866Z,35.71
2019-01-16T09:10:05.786Z,34.59
2019-01-16T09:13:03.257Z,35.11
2019-01-16T09:15:51.664Z,34.69
2019-01-16T09:18:31.647Z,34.57
2019-01-16T09:21:10.458Z,34.46
2019-01-16T09:23:58.899Z,34.40
2019-01-16T09:26:47.350Z,34.37
2019-01-16T09:29:34.666Z,34.39
2019-01-16T09:32:25.883Z,34.04
2019-01-16T09:35:15.705Z,33.93
2019-01-16T09:38:15.995Z,34.02
2019-01-16T09:41:03.076Z,33.69
2019-01-16T09:43:50.682Z,33.52
2019-01-16T09:46:44.914Z,34.15
2019-01-16T09:49:42.118Z,34.41
2019-01-16T09:52:31.071Z,35.57
2019-01-16T09:55:27.098Z,35.78
2019-01-16T09:58:27.568Z,36.33
2019-01-16T10:01:14.890Z,36.07
2019-01-16T10:04:09.404Z,36.67
2019-01-16T10:06:57.807Z,37.01
2019-01-16T10:09:58.641Z,37.05
2019-01-16T10:12:56.154Z,36.61
2019-01-16T10:15:43.258Z,37.29
2019-01-16T10:18:31.653Z,37.49
2019-01-16T10:21:20.093Z,37.14
2019-01-16T10:24:17.951Z,37.82
2019-01-16T10:27:09.603Z,37.11
2019-01-16T10:30:03.916Z,36.96
2019-01-16T10:32:58.354Z,36.63
2019-01-16T10:35:45.653Z,36.29
2019-01-16T10:38:43.107Z,35.63
2019-01-16T10:41:30.091Z,35.22
2019-01-16T10:44:13.905Z,35.03
2019-01-16T10:47:17.496Z,34.58
2019-01-16T10:50:05.387Z,33.78
2019-01-16T10:52:52.486Z,33.49
2019-01-16T10:55:47.027Z,34.13
2019-01-16T10:58:41.370Z,33.39
2019-01-16T11:01:18.614Z,33.39
2019-01-16T11:04:06.899Z,33.28
2019-01-16T11:06:54.002Z,32.77
2019-01-16T11:09:54.613Z,32.41
2019-01-16T11:12:49.228Z,32.38
2019-01-16T11:15:46.877Z,32.31
2019-01-16T11:18:33.873Z,32.49
2019-01-16T11:21:22.169Z,32.47
2019-01-16T11:24:16.413Z,31.96
2019-01-16T11:27:04.795Z,31.94
2019-01-16T11:29:56.079Z,31.64
2019-01-16T11:32:47.533Z,31.68
2019-01-16T11:35:48.334Z,31.48
2019-01-16T11:38:36.856Z,30.96
2019-01-16T11:41:43.357Z,27.76
2019-01-16T11:44:50.190Z,28.23
2019-01-16T11:47:35.458Z,29.36
2019-01-16T11:50:28.278Z,30.27
2019-01-16T11:53:22.564Z,29.72
2019-01-16T11:56:09.909Z,30.44
2019-01-16T11:58:57.093Z,29.61
2019-01-16T12:01:54.775Z,30.31
2019-01-16T12:04:38.056Z,30.89
2019-01-16T12:07:26.693Z,31.37
2019-01-16T12:10:20.832Z,31.36
2019-01-16T12:12:59.454Z,32.02
2019-01-16T12:15:40.907Z,32.50
2019-01-16T12:18:27.929Z,32.84
2019-01-16T12:21:15.114Z,32.75
2019-01-16T12:24:18.626Z,33.27
2019-01-16T12:27:10.077Z,33.65
2019-01-16T12:29:57.452Z,34.01
2019-01-16T12:32:45.913Z,33.67
2019-01-16T12:35:49.310Z,33.37
2019-01-16T12:38:46.649Z,33.50
2019-01-16T12:41:38.056Z,33.28
2019-01-16T12:44:19.071Z,32.97
2019-01-16T12:47:06.466Z,32.72
2019-01-16T12:50:02.501Z,32.41
2019-01-16T12:52:54.086Z,32.20
2019-01-16T12:55:55.302Z,32.29
2019-01-16T12:58:35.182Z,32.08
2019-01-16T13:01:26.709Z,31.78
2019-01-16T13:04:18.385Z,31.63
2019-01-16T13:07:07.057Z,31.80
2019-01-16T13:09:56.147Z,31.63
2019-01-16T13:12:43.553Z,31.44
2019-01-16T13:15:36.631Z,31.30
2019-01-16T13:18:25.171Z,31.27
2019-01-16T13:21:32.097Z,31.16
2019-01-16T13:24:20.634Z,31.13
2019-01-16T13:27:17.863Z,30.92
2019-01-16T13:30:06.309Z,30.88
2019-01-16T13:32:54.570Z,30.81
2019-01-16T13:35:42.999Z,30.89
2019-01-16T13:38:29.446Z,30.74
2019-01-16T13:41:26.890Z,30.87
2019-01-16T13:44:27.340Z,30.96
2019-01-16T13:47:14.760Z,30.89
2019-01-16T13:50:01.690Z,31.01
2019-01-16T13:52:48.851Z,31.24
2019-01-16T13:55:37.322Z,30.99
2019-01-16T13:58:24.660Z,30.85
2019-01-16T14:01:13.919Z,30.83
2019-01-16T14:04:02.353Z,30.90
2019-01-16T14:06:37.708Z,30.86
2019-01-16T14:09:30.566Z,30.83
2019-01-16T14:12:17.684Z,30.74
2019-01-16T14:15:05.034Z,30.71
2019-01-16T14:18:02.674Z,30.67
2019-01-16T14:20:42.203Z,30.66
2019-01-16T14:23:42.884Z,30.74
2019-01-16T14:26:37.210Z,30.80
2019-01-16T14:29:37.794Z,31.01
2019-01-16T14:32:26.928Z,30.81
2019-01-16T14:35:16.083Z,30.83
2019-01-16T14:38:03.231Z,30.78
2019-01-16T14:40:50.519Z,30.76
2019-01-16T14:43:45.097Z,30.87
2019-01-16T14:46:52.098Z,30.90
2019-01-16T14:49:40.108Z,30.78
2019-01-16T14:52:27.137Z,30.79
2019-01-16T14:55:27.506Z,30.70
2019-01-16T14:58:15.949Z,30.68
2019-01-16T15:00:56.541Z,30.68
2019-01-16T15:03:43.453Z,30.80
2019-01-16T15:06:30.572Z,30.91
2019-01-16T15:09:28.223Z,30.91
2019-01-16T15:12:19.462Z,30.97
2019-01-16T15:15:06.779Z,30.97
2019-01-16T15:17:53.825Z,30.96
2019-01-16T15:20:41.205Z,30.98
2019-01-16T15:23:47.772Z,30.90
2019-01-16T15:26:42.664Z,30.89
2019-01-16T15:29:46.503Z,30.89
2019-01-16T15:32:33.934Z,30.83
2019-01-16T15:35:22.407Z,30.93
2019-01-16T15:38:13.902Z,30.62
2019-01-16T15:41:17.634Z,30.26
2019-01-16T15:43:59.324Z,30.09
2019-01-16T15:46:44.064Z,29.84
2019-01-16T15:49:47.794Z,29.80
2019-01-16T15:52:41.943Z,29.59
2019-01-16T15:55:42.452Z,29.39
2019-01-16T15:58:20.715Z,29.26
2019-01-16T16:01:14.354Z,29.00
2019-01-16T16:04:20.890Z,28.39
2019-01-16T16:07:11.041Z,28.19
2019-01-16T16:10:11.263Z,28.40
2019-01-16T16:13:02.361Z,28.60
2019-01-16T16:15:53.617Z,28.58
2019-01-16T16:18:45.087Z,28.53
2019-01-16T16:21:33.542Z,28.17
2019-01-16T16:24:27.850Z,28.47
2019-01-16T16:27:28.575Z,28.59
2019-01-16T16:30:19.936Z,28.63
2019-01-16T16:33:08.337Z,28.59
2019-01-16T16:36:08.097Z,28.62
2019-01-16T16:38:59.308Z,28.78
2019-01-16T16:41:47.725Z,28.81
2019-01-16T16:44:42.122Z,28.89
2019-01-16T16:47:33.573Z,28.92
2019-01-16T16:50:40.505Z,28.28
2019-01-16T16:53:27.320Z,29.21
2019-01-16T16:56:18.712Z,29.32
2019-01-16T16:59:10.266Z,28.20
2019-01-16T17:02:04.805Z,29.45
2019-01-16T17:04:52.088Z,29.70
2019-01-16T17:07:43.652Z,29.75
2019-01-16T17:10:19.824Z,29.75
2019-01-16T17:13:11.002Z,29.95
2019-01-16T17:15:59.433Z,30.11
2019-01-16T17:18:56.637Z,28.38
2019-01-16T17:21:51.213Z,29.07
2019-01-16T17:24:48.757Z,29.60
2019-01-16T17:27:49.061Z,29.57
2019-01-16T17:30:52.571Z,29.84
2019-01-16T17:33:50.061Z,29.70
2019-01-16T17:36:41.454Z,30.25
2019-01-16T17:39:48.313Z,30.21
2019-01-16T17:42:45.598Z,30.08
2019-01-16T17:45:43.167Z,30.46
2019-01-16T17:48:37.301Z,30.49
2019-01-16T17:51:25.822Z,30.60
2019-01-16T17:54:23.023Z,30.84
2019-01-16T17:57:17.354Z,30.58
2019-01-16T18:00:14.414Z,27.83
2019-01-16T18:03:02.302Z,29.35
2019-01-16T18:05:59.967Z,29.67
2019-01-16T18:08:39.270Z,29.83
2019-01-16T18:11:27.688Z,29.81
2019-01-16T18:14:21.961Z,30.04
2019-01-16T18:17:09.292Z,30.30
2019-01-16T18:19:50.063Z,30.82
2019-01-16T18:22:45.164Z,30.62
2019-01-16T18:25:28.743Z,30.47
2019-01-16T18:28:35.346Z,31.03
2019-01-16T18:31:35.751Z,31.08
2019-01-16T18:34:27.024Z,31.44
2019-01-16T18:37:21.286Z,31.16
2019-01-16T18:40:12.830Z,31.19
2019-01-16T18:43:02.845Z,31.57
2019-01-16T18:45:50.278Z,31.55
2019-01-16T18:49:00.723Z,31.58
2019-01-16T18:52:10.271Z,31.58
2019-01-16T18:55:48.740Z,31.32
2019-01-16T18:58:59.360Z,31.31
2019-01-16T19:01:56.978Z,31.17
2019-01-16T19:04:54.485Z,31.04
2019-01-16T19:08:20.840Z,30.93
2019-01-16T19:11:54.455Z,30.81
2019-01-16T19:15:26.722Z,30.69
2019-01-16T19:18:13.865Z,30.63
2019-01-16T19:21:29.959Z,30.51
2019-01-16T19:24:18.328Z,30.40
2019-01-16T19:27:21.907Z,30.67
2019-01-16T19:30:28.708Z,30.57
2019-01-16T19:33:09.265Z,30.58
2019-01-16T19:36:03.859Z,30.65
2019-01-16T19:38:55.370Z,30.51
2019-01-16T19:41:48.326Z,30.83
2019-01-16T19:44:42.065Z,30.84
2019-01-16T19:47:57.985Z,30.98
2019-01-16T19:51:07.863Z,30.79
2019-01-16T19:54:53.144Z,30.78
2019-01-16T19:57:48.386Z,30.76
2019-01-16T20:01:04.999Z,30.80
2019-01-16T20:03:50.226Z,30.54
2019-01-16T20:06:40.465Z,30.72
2019-01-16T20:09:28.902Z,30.59
2019-01-16T20:12:23.508Z,30.74
2019-01-16T20:15:12.813Z,30.73
2019-01-16T20:18:06.932Z,30.68
2019-01-16T20:21:07.098Z,30.60
2019-01-16T20:23:48.475Z,30.64
2019-01-16T20:26:35.764Z,30.57
2019-01-16T20:29:24.187Z,30.55
2019-01-16T20:32:21.745Z,30.44
2019-01-16T20:35:10.258Z,30.78
2019-01-16T20:37:55.889Z,31.11
2019-01-16T20:40:38.213Z,31.20
2019-01-16T20:43:15.900Z,31.35
2019-01-16T20:49:18.489Z,31.60
2019-01-16T20:52:01.232Z,31.88
2019-01-16T20:54:55.690Z,31.76
2019-01-16T20:57:44.097Z,31.87
2019-01-16T21:00:37.222Z,32.12
2019-01-16T21:03:37.815Z,32.80
2019-01-16T21:06:26.193Z,32.50
2019-01-16T21:09:20.426Z,32.64
2019-01-16T21:12:08.822Z,32.47
2019-01-16T21:14:55.898Z,32.46
2019-01-16T21:17:53.546Z,32.41
2019-01-16T21:20:50.658Z,32.41
2019-01-16T21:23:37.894Z,32.33
2019-01-16T21:26:29.124Z,32.33
2019-01-16T21:29:17.563Z,32.35
2019-01-16T21:32:02.211Z,32.29
2019-01-16T21:35:02.673Z,32.28
2019-01-16T21:37:55.906Z,32.30
2019-01-16T21:40:43.243Z,32.29
2019-01-16T21:43:30.640Z,32.27
2019-01-16T21:46:22.139Z,32.35
2019-01-16T21:49:07.354Z,32.30
2019-01-16T21:51:59.745Z,32.30
2019-01-16T21:54:51.284Z,32.27
2019-01-16T21:57:45.700Z,32.26
2019-01-16T22:00:47.229Z,32.27
2019-01-16T22:03:38.553Z,32.25
2019-01-16T22:06:20.174Z,32.21
2019-01-16T22:09:14.999Z,32.21
2019-01-16T22:11:58.827Z,32.20
2019-01-16T22:14:46.369Z,32.22
2019-01-16T22:17:41.007Z,32.15
2019-01-16T22:20:32.462Z,32.14
2019-01-16T22:23:27.160Z,32.06
2019-01-16T22:26:18.784Z,32.40
2019-01-16T22:29:10.367Z,32.68
2019-01-16T22:32:10.873Z,32.50
2019-01-16T22:34:58.625Z,32.45
2019-01-16T22:37:35.235Z,32.37
2019-01-16T22:40:29.875Z,32.25
2019-01-16T22:43:30.571Z,32.27
2019-01-16T22:46:19.173Z,32.29
2019-01-16T22:49:10.441Z,32.20
2019-01-16T22:52:07.988Z,32.16
2019-01-16T22:55:02.303Z,32.10
2019-01-16T22:57:57.447Z,32.17
2019-01-16T23:00:53.722Z,32.19
2019-01-16T23:03:42.215Z,32.12
2019-01-16T23:06:31.397Z,32.13
2019-01-16T23:09:28.937Z,31.99
2019-01-16T23:12:20.419Z,32.11
2019-01-16T23:15:04.919Z,31.99
2019-01-16T23:18:00.119Z,32.03
2019-01-16T23:20:47.142Z,32.00
2019-01-16T23:23:41.936Z,31.98
2019-01-16T23:26:30.551Z,31.93
2019-01-16T23:29:17.810Z,31.92
2019-01-16T23:32:05.358Z,31.98
2019-01-16T23:34:53.891Z,31.99
2019-01-16T23:37:36.409Z,31.99
2019-01-16T23:40:32.120Z,31.93
2019-01-16T23:43:35.586Z,31.93
2019-01-16T23:46:36.521Z,31.74
2019-01-16T23:49:25.550Z,31.87
2019-01-16T23:52:12.632Z,31.80
2019-01-16T23:54:59.790Z,31.78
2019-01-16T23:57:43.098Z,31.79
